Airfield :
LOGIN :

Register | Disclaimer

   EN    FR    IT 

 










Legend :    VFR   Marginal VFR   IFR   Intensive IFR   Very Intensive IFR
Visi :
Ceiling :
>= 8 km
>= 3000ft
5 to 8 km
1000 to 3000 ft
1500m to 5 km
500 to 1000 ft
800 to 1500m
200 to 500 ft
< 800m
< 200 ft
Symbols :   Thunderstorms  Fog  Heavy snow  Heavy precipitations  Wind > 20 kt
SIGMETs :     Misc.  Thunderstorms  Icing  Turbulence  Mountain Waves  Volcanic Ashes






- Airport Elevation : 392 ft
- IATA code : CDG


LFPG - Paris-Aeroport Charles De Gaulle

CURRENT METAR :
  • 281600Z AUTO 06012KT CAVOK 24/02 Q1027 NOSIG

EXPIRED METARs :
  • 281530Z AUTO 05011KT 010V080 CAVOK 24/03 Q1027 NOSIG
  • 281500Z AUTO 05011KT 010V100 CAVOK 24/03 Q1028 NOSIG
  • 281430Z AUTO 04012KT CAVOK 23/05 Q1028 NOSIG
  • 281400Z AUTO 06010KT 020V090 CAVOK 23/05 Q1028 NOSIG
  • 281330Z AUTO 05012KT 020V080 CAVOK 23/07 Q1028 NOSIG

TAF TAF LFPG
Valid from the 28 at 12:00 until the 29 at 18:00 UTC


281100Z 2812/2918 05010KT CAVOK TX24/2815Z TN12/2904Z
ATIS : +33 1 48 62 10 92



MET'MAP, your aeronautical weather chart ! - Copyright ORBIFLY December 2007 - Disclaimer

ORBIFLY MET'MAP TEAM :

Programming & Development : Alexandra Zaïnal
Concept & original design : Baudouin d'Aumeries
Assistance for programming : Marc-Olivier Méhu
Technical & hardware support : Manuel Goepfert

Contact : metmap@orbifly.com




SOURCES & CREDITS :

   NOAA